Terminal Aerodrome Forecast
Issued by NWS

Home | Current Version | Previous Version | Text Only | Print | Product List | Glossary On
Versions: 1 2 3 4 5 6 7 8 9 10 11 12 13 14
558
FTUS45 KRIW 240532
TAFBPI
TAF
KBPI 240532Z 2406/2506 34008KT P6SM SKC
     FM241000 VRB06KT P6SM SKC
     FM242000 29010KT P6SM SKC
     FM250100 33008KT P6SM SKC=

USA.gov is the U.S. government's official web portal to all federal, state and local government web resources and services.